sensor_id;sensor_type;location;lat;lon;timestamp;P1;durP1;ratioP1;P2;durP2;ratioP2
177;SDS011;77;48.792;9.032;2024-03-08T00:01:16;35.67;;;22.20;;
177;SDS011;77;48.792;9.032;2024-03-08T00:03:41;35.60;;;22.43;;
177;SDS011;77;48.792;9.032;2024-03-08T00:06:07;37.50;;;22.17;;
177;SDS011;77;48.792;9.032;2024-03-08T00:08:32;35.67;;;21.63;;
177;SDS011;77;48.792;9.032;2024-03-08T00:10:58;37.10;;;23.08;;
177;SDS011;77;48.792;9.032;2024-03-08T00:13:23;36.20;;;22.40;;
177;SDS011;77;48.792;9.032;2024-03-08T00:15:49;38.40;;;23.90;;
177;SDS011;77;48.792;9.032;2024-03-08T00:18:14;34.35;;;21.77;;
177;SDS011;77;48.792;9.032;2024-03-08T00:20:39;36.07;;;22.50;;
177;SDS011;77;48.792;9.032;2024-03-08T00:23:04;35.53;;;21.80;;
177;SDS011;77;48.792;9.032;2024-03-08T00:25:29;38.93;;;22.60;;
177;SDS011;77;48.792;9.032;2024-03-08T00:27:56;33.73;;;21.40;;
177;SDS011;77;48.792;9.032;2024-03-08T00:30:21;35.80;;;22.50;;
177;SDS011;77;48.792;9.032;2024-03-08T00:32:46;38.80;;;22.43;;
177;SDS011;77;48.792;9.032;2024-03-08T00:35:11;36.37;;;21.60;;
177;SDS011;77;48.792;9.032;2024-03-08T00:37:36;34.83;;;22.03;;
177;SDS011;77;48.792;9.032;2024-03-08T00:40:02;40.27;;;21.80;;
177;SDS011;77;48.792;9.032;2024-03-08T00:42:27;35.10;;;21.43;;
177;SDS011;77;48.792;9.032;2024-03-08T00:44:53;35.87;;;22.40;;
177;SDS011;77;48.792;9.032;2024-03-08T00:47:18;38.53;;;21.87;;
177;SDS011;77;48.792;9.032;2024-03-08T00:49:44;34.10;;;21.27;;
177;SDS011;77;48.792;9.032;2024-03-08T00:52:09;35.00;;;21.73;;
177;SDS011;77;48.792;9.032;2024-03-08T00:54:34;34.73;;;21.93;;
177;SDS011;77;48.792;9.032;2024-03-08T00:56:59;36.53;;;22.07;;
177;SDS011;77;48.792;9.032;2024-03-08T00:59:24;37.80;;;23.60;;
177;SDS011;77;48.792;9.032;2024-03-08T01:01:51;36.63;;;22.65;;
177;SDS011;77;48.792;9.032;2024-03-08T01:04:16;38.00;;;22.23;;
177;SDS011;77;48.792;9.032;2024-03-08T01:06:41;35.47;;;20.70;;
177;SDS011;77;48.792;9.032;2024-03-08T01:09:06;36.70;;;22.30;;
177;SDS011;77;48.792;9.032;2024-03-08T01:11:32;33.80;;;20.90;;
177;SDS011;77;48.792;9.032;2024-03-08T01:13:57;38.10;;;22.17;;
177;SDS011;77;48.792;9.032;2024-03-08T01:16:22;34.73;;;21.17;;
177;SDS011;77;48.792;9.032;2024-03-08T01:18:48;35.50;;;21.93;;
177;SDS011;77;48.792;9.032;2024-03-08T01:21:13;37.77;;;22.43;;
177;SDS011;77;48.792;9.032;2024-03-08T01:23:39;37.23;;;22.03;;
177;SDS011;77;48.792;9.032;2024-03-08T01:26:04;37.63;;;22.63;;
177;SDS011;77;48.792;9.032;2024-03-08T01:28:29;34.30;;;22.43;;
177;SDS011;77;48.792;9.032;2024-03-08T01:30:55;36.83;;;21.30;;
177;SDS011;77;48.792;9.032;2024-03-08T01:33:20;39.50;;;22.53;;
177;SDS011;77;48.792;9.032;2024-03-08T01:35:46;34.70;;;21.40;;
177;SDS011;77;48.792;9.032;2024-03-08T01:38:11;36.57;;;22.60;;
177;SDS011;77;48.792;9.032;2024-03-08T01:40:37;34.90;;;21.67;;
177;SDS011;77;48.792;9.032;2024-03-08T01:43:16;33.53;;;21.33;;
177;SDS011;77;48.792;9.032;2024-03-08T01:45:41;36.30;;;22.50;;
177;SDS011;77;48.792;9.032;2024-03-08T01:48:06;35.07;;;21.50;;
177;SDS011;77;48.792;9.032;2024-03-08T01:50:31;35.57;;;22.30;;
177;SDS011;77;48.792;9.032;2024-03-08T01:52:58;36.30;;;21.60;;
177;SDS011;77;48.792;9.032;2024-03-08T01:55:23;35.10;;;21.33;;
177;SDS011;77;48.792;9.032;2024-03-08T01:57:48;37.43;;;22.27;;
177;SDS011;77;48.792;9.032;2024-03-08T02:00:14;35.87;;;22.10;;
177;SDS011;77;48.792;9.032;2024-03-08T02:02:39;36.27;;;22.37;;
177;SDS011;77;48.792;9.032;2024-03-08T02:05:05;34.43;;;21.33;;
177;SDS011;77;48.792;9.032;2024-03-08T02:07:30;36.57;;;21.17;;
177;SDS011;77;48.792;9.032;2024-03-08T02:09:56;34.13;;;21.87;;
177;SDS011;77;48.792;9.032;2024-03-08T02:12:22;34.73;;;21.70;;
177;SDS011;77;48.792;9.032;2024-03-08T02:14:47;34.03;;;21.83;;
177;SDS011;77;48.792;9.032;2024-03-08T02:17:12;36.50;;;21.23;;
177;SDS011;77;48.792;9.032;2024-03-08T02:19:37;35.27;;;21.70;;
177;SDS011;77;48.792;9.032;2024-03-08T02:22:04;35.00;;;21.47;;
177;SDS011;77;48.792;9.032;2024-03-08T02:24:30;34.33;;;20.50;;
177;SDS011;77;48.792;9.032;2024-03-08T02:26:56;34.70;;;20.70;;
177;SDS011;77;48.792;9.032;2024-03-08T02:29:21;39.08;;;20.42;;
177;SDS011;77;48.792;9.032;2024-03-08T02:31:46;33.67;;;19.93;;
177;SDS011;77;48.792;9.032;2024-03-08T02:34:11;32.45;;;20.70;;
177;SDS011;77;48.792;9.032;2024-03-08T02:36:36;33.13;;;19.67;;
177;SDS011;77;48.792;9.032;2024-03-08T02:39:03;29.60;;;19.13;;
177;SDS011;77;48.792;9.032;2024-03-08T02:41:28;32.53;;;20.50;;
177;SDS011;77;48.792;9.032;2024-03-08T02:43:53;32.50;;;20.37;;
177;SDS011;77;48.792;9.032;2024-03-08T02:46:18;32.63;;;20.50;;
177;SDS011;77;48.792;9.032;2024-03-08T02:48:43;34.07;;;20.77;;
177;SDS011;77;48.792;9.032;2024-03-08T02:51:09;37.67;;;19.80;;
177;SDS011;77;48.792;9.032;2024-03-08T02:53:34;33.27;;;20.57;;
177;SDS011;77;48.792;9.032;2024-03-08T02:56:00;34.67;;;20.40;;
177;SDS011;77;48.792;9.032;2024-03-08T02:58:25;33.20;;;20.07;;
177;SDS011;77;48.792;9.032;2024-03-08T03:00:50;34.63;;;20.90;;
177;SDS011;77;48.792;9.032;2024-03-08T03:03:16;29.73;;;18.83;;
177;SDS011;77;48.792;9.032;2024-03-08T03:05:41;31.50;;;19.30;;
177;SDS011;77;48.792;9.032;2024-03-08T03:08:06;31.30;;;19.57;;
177;SDS011;77;48.792;9.032;2024-03-08T03:10:31;33.37;;;20.10;;
177;SDS011;77;48.792;9.032;2024-03-08T03:12:58;33.17;;;20.27;;
177;SDS011;77;48.792;9.032;2024-03-08T03:15:23;34.83;;;20.43;;
177;SDS011;77;48.792;9.032;2024-03-08T03:17:48;31.23;;;20.10;;
177;SDS011;77;48.792;9.032;2024-03-08T03:20:13;30.90;;;20.00;;
177;SDS011;77;48.792;9.032;2024-03-08T03:22:39;29.87;;;19.00;;
177;SDS011;77;48.792;9.032;2024-03-08T03:25:04;31.13;;;19.90;;
177;SDS011;77;48.792;9.032;2024-03-08T03:27:30;33.07;;;20.33;;
177;SDS011;77;48.792;9.032;2024-03-08T03:29:56;31.80;;;20.37;;
177;SDS011;77;48.792;9.032;2024-03-08T03:32:21;36.00;;;19.97;;
177;SDS011;77;48.792;9.032;2024-03-08T03:34:46;31.47;;;19.73;;
177;SDS011;77;48.792;9.032;2024-03-08T03:37:11;29.90;;;19.03;;
177;SDS011;77;48.792;9.032;2024-03-08T03:39:37;33.33;;;20.57;;
177;SDS011;77;48.792;9.032;2024-03-08T03:42:02;34.03;;;20.67;;
177;SDS011;77;48.792;9.032;2024-03-08T03:44:27;32.17;;;19.20;;
177;SDS011;77;48.792;9.032;2024-03-08T03:46:54;32.30;;;19.43;;
177;SDS011;77;48.792;9.032;2024-03-08T03:49:19;32.83;;;19.43;;
177;SDS011;77;48.792;9.032;2024-03-08T03:51:44;35.00;;;20.07;;
177;SDS011;77;48.792;9.032;2024-03-08T03:54:09;30.77;;;19.33;;
177;SDS011;77;48.792;9.032;2024-03-08T03:56:34;33.43;;;20.27;;
177;SDS011;77;48.792;9.032;2024-03-08T03:58:59;41.03;;;19.90;;
177;SDS011;77;48.792;9.032;2024-03-08T04:01:25;32.23;;;20.80;;
177;SDS011;77;48.792;9.032;2024-03-08T04:03:51;32.80;;;21.00;;
177;SDS011;77;48.792;9.032;2024-03-08T04:06:16;32.80;;;20.43;;
177;SDS011;77;48.792;9.032;2024-03-08T04:08:41;33.23;;;19.90;;
177;SDS011;77;48.792;9.032;2024-03-08T04:11:07;32.70;;;19.70;;
177;SDS011;77;48.792;9.032;2024-03-08T04:13:32;34.53;;;20.23;;
177;SDS011;77;48.792;9.032;2024-03-08T04:15:57;33.07;;;20.03;;
177;SDS011;77;48.792;9.032;2024-03-08T04:18:22;33.47;;;20.43;;
177;SDS011;77;48.792;9.032;2024-03-08T04:20:48;39.23;;;21.37;;
177;SDS011;77;48.792;9.032;2024-03-08T04:23:14;34.43;;;20.87;;
177;SDS011;77;48.792;9.032;2024-03-08T04:25:39;33.10;;;19.60;;
177;SDS011;77;48.792;9.032;2024-03-08T04:28:04;35.75;;;21.27;;
177;SDS011;77;48.792;9.032;2024-03-08T04:30:29;33.53;;;20.30;;
177;SDS011;77;48.792;9.032;2024-03-08T04:32:54;37.80;;;21.37;;
177;SDS011;77;48.792;9.032;2024-03-08T04:35:20;33.10;;;20.20;;
177;SDS011;77;48.792;9.032;2024-03-08T04:37:46;34.13;;;20.77;;
177;SDS011;77;48.792;9.032;2024-03-08T04:40:11;35.07;;;20.93;;
177;SDS011;77;48.792;9.032;2024-03-08T04:42:36;35.77;;;22.00;;
177;SDS011;77;48.792;9.032;2024-03-08T04:45:02;34.13;;;21.20;;
177;SDS011;77;48.792;9.032;2024-03-08T04:47:27;31.97;;;19.10;;
177;SDS011;77;48.792;9.032;2024-03-08T04:49:52;32.30;;;20.73;;
177;SDS011;77;48.792;9.032;2024-03-08T04:52:17;34.40;;;20.47;;
177;SDS011;77;48.792;9.032;2024-03-08T04:54:45;35.77;;;21.73;;
177;SDS011;77;48.792;9.032;2024-03-08T04:57:10;32.73;;;20.77;;
177;SDS011;77;48.792;9.032;2024-03-08T04:59:35;35.03;;;21.80;;
177;SDS011;77;48.792;9.032;2024-03-08T05:02:00;34.92;;;21.05;;
177;SDS011;77;48.792;9.032;2024-03-08T05:04:25;33.53;;;21.10;;
177;SDS011;77;48.792;9.032;2024-03-08T05:06:51;34.38;;;21.58;;
177;SDS011;77;48.792;9.032;2024-03-08T05:09:16;34.50;;;22.48;;
177;SDS011;77;48.792;9.032;2024-03-08T05:11:42;32.77;;;20.70;;
177;SDS011;77;48.792;9.032;2024-03-08T05:14:08;33.40;;;21.33;;
177;SDS011;77;48.792;9.032;2024-03-08T05:16:33;35.40;;;21.20;;
177;SDS011;77;48.792;9.032;2024-03-08T05:18:58;35.80;;;21.07;;
177;SDS011;77;48.792;9.032;2024-03-08T05:21:23;33.70;;;20.87;;
177;SDS011;77;48.792;9.032;2024-03-08T05:23:49;36.63;;;21.77;;
177;SDS011;77;48.792;9.032;2024-03-08T05:26:14;36.63;;;21.20;;
177;SDS011;77;48.792;9.032;2024-03-08T05:28:40;35.70;;;21.30;;
177;SDS011;77;48.792;9.032;2024-03-08T05:31:05;37.83;;;23.10;;
177;SDS011;77;48.792;9.032;2024-03-08T05:33:31;37.05;;;22.63;;
177;SDS011;77;48.792;9.032;2024-03-08T05:35:56;33.40;;;20.33;;
177;SDS011;77;48.792;9.032;2024-03-08T05:38:21;35.23;;;21.57;;
177;SDS011;77;48.792;9.032;2024-03-08T05:40:46;36.30;;;22.43;;
177;SDS011;77;48.792;9.032;2024-03-08T05:43:11;36.50;;;22.20;;
177;SDS011;77;48.792;9.032;2024-03-08T05:45:38;33.77;;;21.80;;
177;SDS011;77;48.792;9.032;2024-03-08T05:48:03;34.67;;;21.80;;
177;SDS011;77;48.792;9.032;2024-03-08T05:50:28;34.30;;;21.10;;
177;SDS011;77;48.792;9.032;2024-03-08T05:52:54;33.80;;;21.10;;
177;SDS011;77;48.792;9.032;2024-03-08T05:55:19;37.27;;;22.57;;
177;SDS011;77;48.792;9.032;2024-03-08T05:57:44;35.20;;;22.10;;
177;SDS011;77;48.792;9.032;2024-03-08T06:00:09;35.00;;;21.40;;
177;SDS011;77;48.792;9.032;2024-03-08T06:02:36;33.53;;;21.30;;
177;SDS011;77;48.792;9.032;2024-03-08T06:05:01;34.97;;;21.93;;
177;SDS011;77;48.792;9.032;2024-03-08T06:07:26;38.10;;;22.93;;
177;SDS011;77;48.792;9.032;2024-03-08T06:09:52;37.25;;;22.60;;
177;SDS011;77;48.792;9.032;2024-03-08T06:12:17;35.63;;;22.50;;
177;SDS011;77;48.792;9.032;2024-03-08T06:14:42;36.53;;;22.47;;
177;SDS011;77;48.792;9.032;2024-03-08T06:17:07;35.53;;;21.65;;
177;SDS011;77;48.792;9.032;2024-03-08T06:19:33;36.77;;;22.27;;
177;SDS011;77;48.792;9.032;2024-03-08T06:21:59;36.20;;;22.20;;
177;SDS011;77;48.792;9.032;2024-03-08T06:24:24;38.20;;;22.13;;
177;SDS011;77;48.792;9.032;2024-03-08T06:26:49;37.07;;;22.90;;
177;SDS011;77;48.792;9.032;2024-03-08T06:29:14;34.90;;;22.20;;
177;SDS011;77;48.792;9.032;2024-03-08T06:31:39;35.83;;;22.10;;
177;SDS011;77;48.792;9.032;2024-03-08T06:34:04;32.23;;;21.30;;
177;SDS011;77;48.792;9.032;2024-03-08T06:36:31;35.30;;;22.37;;
177;SDS011;77;48.792;9.032;2024-03-08T06:38:56;34.77;;;21.67;;
177;SDS011;77;48.792;9.032;2024-03-08T06:41:21;35.30;;;22.73;;
177;SDS011;77;48.792;9.032;2024-03-08T06:43:47;35.37;;;21.77;;
177;SDS011;77;48.792;9.032;2024-03-08T06:46:12;40.00;;;23.57;;
177;SDS011;77;48.792;9.032;2024-03-08T06:48:37;36.13;;;22.23;;
177;SDS011;77;48.792;9.032;2024-03-08T06:51:02;37.90;;;23.03;;
177;SDS011;77;48.792;9.032;2024-03-08T06:53:29;38.23;;;23.70;;
177;SDS011;77;48.792;9.032;2024-03-08T06:55:54;37.60;;;23.13;;
177;SDS011;77;48.792;9.032;2024-03-08T06:58:19;37.23;;;23.00;;
177;SDS011;77;48.792;9.032;2024-03-08T07:00:44;36.97;;;22.53;;
177;SDS011;77;48.792;9.032;2024-03-08T07:03:10;36.28;;;22.83;;
177;SDS011;77;48.792;9.032;2024-03-08T07:05:35;38.05;;;23.02;;
177;SDS011;77;48.792;9.032;2024-03-08T07:08:00;37.40;;;22.60;;
177;SDS011;77;48.792;9.032;2024-03-08T07:10:26;40.03;;;22.87;;
177;SDS011;77;48.792;9.032;2024-03-08T07:12:52;39.83;;;24.13;;
177;SDS011;77;48.792;9.032;2024-03-08T07:15:17;36.97;;;22.80;;
177;SDS011;77;48.792;9.032;2024-03-08T07:17:42;35.58;;;22.23;;
177;SDS011;77;48.792;9.032;2024-03-08T07:20:08;38.70;;;22.80;;
177;SDS011;77;48.792;9.032;2024-03-08T07:22:33;40.60;;;25.10;;
177;SDS011;77;48.792;9.032;2024-03-08T07:24:58;39.37;;;23.27;;
177;SDS011;77;48.792;9.032;2024-03-08T07:27:24;39.90;;;24.13;;
177;SDS011;77;48.792;9.032;2024-03-08T07:29:50;37.30;;;22.93;;
177;SDS011;77;48.792;9.032;2024-03-08T07:32:15;37.80;;;22.60;;
177;SDS011;77;48.792;9.032;2024-03-08T07:34:40;38.03;;;23.63;;
177;SDS011;77;48.792;9.032;2024-03-08T07:37:05;38.90;;;22.80;;
177;SDS011;77;48.792;9.032;2024-03-08T07:39:30;40.50;;;25.30;;
177;SDS011;77;48.792;9.032;2024-03-08T07:41:56;37.43;;;23.17;;
177;SDS011;77;48.792;9.032;2024-03-08T07:44:22;35.87;;;22.50;;
177;SDS011;77;48.792;9.032;2024-03-08T07:46:47;37.43;;;23.03;;
177;SDS011;77;48.792;9.032;2024-03-08T07:49:12;38.30;;;21.50;;
177;SDS011;77;48.792;9.032;2024-03-08T07:51:38;36.33;;;22.83;;
177;SDS011;77;48.792;9.032;2024-03-08T07:54:03;37.27;;;22.70;;
177;SDS011;77;48.792;9.032;2024-03-08T07:56:28;38.20;;;22.70;;
177;SDS011;77;48.792;9.032;2024-03-08T07:58:53;35.45;;;21.70;;
177;SDS011;77;48.792;9.032;2024-03-08T08:01:20;36.40;;;21.67;;
177;SDS011;77;48.792;9.032;2024-03-08T08:03:45;34.07;;;21.50;;
177;SDS011;77;48.792;9.032;2024-03-08T08:06:10;37.33;;;22.73;;
177;SDS011;77;48.792;9.032;2024-03-08T08:08:35;32.83;;;21.40;;
177;SDS011;77;48.792;9.032;2024-03-08T08:11:00;34.40;;;22.17;;
177;SDS011;77;48.792;9.032;2024-03-08T08:13:26;36.17;;;21.63;;
177;SDS011;77;48.792;9.032;2024-03-08T08:15:51;35.67;;;22.90;;
177;SDS011;77;48.792;9.032;2024-03-08T08:18:17;34.23;;;21.97;;
177;SDS011;77;48.792;9.032;2024-03-08T08:20:42;36.27;;;22.63;;
177;SDS011;77;48.792;9.032;2024-03-08T08:23:08;31.87;;;21.00;;
177;SDS011;77;48.792;9.032;2024-03-08T08:25:33;34.65;;;21.67;;
177;SDS011;77;48.792;9.032;2024-03-08T08:27:58;34.90;;;22.67;;
177;SDS011;77;48.792;9.032;2024-03-08T08:30:23;30.50;;;20.53;;
177;SDS011;77;48.792;9.032;2024-03-08T08:32:48;34.40;;;20.93;;
177;SDS011;77;48.792;9.032;2024-03-08T08:35:15;31.70;;;20.73;;
177;SDS011;77;48.792;9.032;2024-03-08T08:37:40;32.23;;;22.00;;
177;SDS011;77;48.792;9.032;2024-03-08T08:40:06;33.50;;;21.67;;
177;SDS011;77;48.792;9.032;2024-03-08T08:42:31;34.17;;;22.20;;
177;SDS011;77;48.792;9.032;2024-03-08T08:44:56;35.23;;;22.33;;
177;SDS011;77;48.792;9.032;2024-03-08T08:47:21;33.67;;;21.75;;
177;SDS011;77;48.792;9.032;2024-03-08T08:49:46;35.23;;;21.90;;
177;SDS011;77;48.792;9.032;2024-03-08T08:52:13;31.60;;;20.53;;
177;SDS011;77;48.792;9.032;2024-03-08T08:54:38;30.87;;;20.03;;
177;SDS011;77;48.792;9.032;2024-03-08T08:57:03;34.13;;;21.00;;
177;SDS011;77;48.792;9.032;2024-03-08T08:59:29;30.20;;;19.77;;
177;SDS011;77;48.792;9.032;2024-03-08T09:01:54;33.87;;;20.27;;
177;SDS011;77;48.792;9.032;2024-03-08T09:04:19;32.00;;;21.13;;
177;SDS011;77;48.792;9.032;2024-03-08T09:06:44;30.50;;;20.17;;
177;SDS011;77;48.792;9.032;2024-03-08T09:09:11;31.67;;;20.20;;
177;SDS011;77;48.792;9.032;2024-03-08T09:11:36;32.97;;;20.40;;
177;SDS011;77;48.792;9.032;2024-03-08T09:14:01;31.47;;;20.10;;
177;SDS011;77;48.792;9.032;2024-03-08T09:16:26;30.63;;;19.40;;
177;SDS011;77;48.792;9.032;2024-03-08T09:18:51;32.10;;;20.27;;
177;SDS011;77;48.792;9.032;2024-03-08T09:21:16;30.47;;;20.03;;
177;SDS011;77;48.792;9.032;2024-03-08T09:23:42;28.60;;;18.67;;
177;SDS011;77;48.792;9.032;2024-03-08T09:26:08;30.73;;;20.95;;
177;SDS011;77;48.792;9.032;2024-03-08T09:28:33;33.87;;;22.10;;
177;SDS011;77;48.792;9.032;2024-03-08T09:30:58;34.20;;;22.10;;
177;SDS011;77;48.792;9.032;2024-03-08T09:33:23;33.53;;;21.60;;
177;SDS011;77;48.792;9.032;2024-03-08T09:35:49;31.50;;;20.20;;
177;SDS011;77;48.792;9.032;2024-03-08T09:38:14;34.00;;;20.80;;
177;SDS011;77;48.792;9.032;2024-03-08T09:40:40;29.47;;;19.60;;
177;SDS011;77;48.792;9.032;2024-03-08T09:43:07;34.03;;;21.70;;
177;SDS011;77;48.792;9.032;2024-03-08T09:45:32;34.60;;;21.97;;
177;SDS011;77;48.792;9.032;2024-03-08T09:48:00;31.97;;;20.50;;
177;SDS011;77;48.792;9.032;2024-03-08T09:50:26;32.63;;;20.87;;
177;SDS011;77;48.792;9.032;2024-03-08T09:52:51;31.70;;;21.03;;
177;SDS011;77;48.792;9.032;2024-03-08T09:55:16;31.57;;;20.60;;
177;SDS011;77;48.792;9.032;2024-03-08T09:57:41;30.47;;;20.97;;
177;SDS011;77;48.792;9.032;2024-03-08T10:00:09;32.67;;;20.43;;
177;SDS011;77;48.792;9.032;2024-03-08T10:02:37;33.97;;;21.17;;
177;SDS011;77;48.792;9.032;2024-03-08T10:05:03;34.47;;;21.83;;
177;SDS011;77;48.792;9.032;2024-03-08T10:07:28;32.63;;;20.13;;
177;SDS011;77;48.792;9.032;2024-03-08T10:09:53;32.77;;;21.10;;
177;SDS011;77;48.792;9.032;2024-03-08T10:12:18;34.70;;;21.20;;
177;SDS011;77;48.792;9.032;2024-03-08T10:14:43;30.20;;;19.60;;
177;SDS011;77;48.792;9.032;2024-03-08T10:17:10;32.43;;;20.60;;
177;SDS011;77;48.792;9.032;2024-03-08T10:19:35;36.30;;;21.13;;
177;SDS011;77;48.792;9.032;2024-03-08T10:22:00;31.07;;;19.80;;
177;SDS011;77;48.792;9.032;2024-03-08T10:24:26;31.10;;;20.30;;
177;SDS011;77;48.792;9.032;2024-03-08T10:26:52;32.03;;;20.90;;
177;SDS011;77;48.792;9.032;2024-03-08T10:29:17;32.83;;;21.00;;
177;SDS011;77;48.792;9.032;2024-03-08T10:31:43;31.40;;;19.83;;
177;SDS011;77;48.792;9.032;2024-03-08T10:34:10;31.90;;;20.33;;
177;SDS011;77;48.792;9.032;2024-03-08T10:36:35;33.13;;;21.73;;
177;SDS011;77;48.792;9.032;2024-03-08T10:39:00;31.60;;;20.20;;
177;SDS011;77;48.792;9.032;2024-03-08T10:41:29;33.13;;;20.80;;
177;SDS011;77;48.792;9.032;2024-03-08T10:44:01;31.73;;;20.57;;
177;SDS011;77;48.792;9.032;2024-03-08T10:46:30;30.70;;;19.63;;
177;SDS011;77;48.792;9.032;2024-03-08T10:48:58;35.70;;;20.53;;
177;SDS011;77;48.792;9.032;2024-03-08T10:51:27;33.37;;;21.43;;
177;SDS011;77;48.792;9.032;2024-03-08T10:53:53;31.80;;;19.80;;
177;SDS011;77;48.792;9.032;2024-03-08T10:56:20;33.13;;;19.63;;
177;SDS011;77;48.792;9.032;2024-03-08T10:58:45;30.13;;;20.40;;
177;SDS011;77;48.792;9.032;2024-03-08T11:01:11;33.63;;;20.17;;
177;SDS011;77;48.792;9.032;2024-03-08T11:03:46;30.20;;;19.37;;
177;SDS011;77;48.792;9.032;2024-03-08T11:06:13;29.50;;;19.13;;
177;SDS011;77;48.792;9.032;2024-03-08T11:08:40;35.13;;;19.67;;
177;SDS011;77;48.792;9.032;2024-03-08T11:11:05;28.50;;;19.13;;
177;SDS011;77;48.792;9.032;2024-03-08T11:13:33;29.47;;;18.67;;
177;SDS011;77;48.792;9.032;2024-03-08T11:15:59;32.40;;;19.43;;
177;SDS011;77;48.792;9.032;2024-03-08T11:18:24;29.17;;;18.50;;
177;SDS011;77;48.792;9.032;2024-03-08T11:20:50;29.27;;;19.03;;
177;SDS011;77;48.792;9.032;2024-03-08T11:23:16;27.57;;;18.43;;
177;SDS011;77;48.792;9.032;2024-03-08T11:25:48;28.10;;;18.00;;
177;SDS011;77;48.792;9.032;2024-03-08T11:28:14;28.83;;;18.00;;
177;SDS011;77;48.792;9.032;2024-03-08T11:30:39;29.10;;;17.90;;
177;SDS011;77;48.792;9.032;2024-03-08T11:33:04;26.60;;;18.27;;
177;SDS011;77;48.792;9.032;2024-03-08T11:35:30;30.50;;;18.50;;
177;SDS011;77;48.792;9.032;2024-03-08T11:37:57;28.07;;;17.23;;
177;SDS011;77;48.792;9.032;2024-03-08T11:40:22;30.93;;;18.80;;
177;SDS011;77;48.792;9.032;2024-03-08T11:42:49;29.27;;;18.50;;
177;SDS011;77;48.792;9.032;2024-03-08T11:45:14;28.87;;;19.00;;
177;SDS011;77;48.792;9.032;2024-03-08T11:47:41;29.53;;;19.40;;
177;SDS011;77;48.792;9.032;2024-03-08T11:50:06;30.23;;;17.83;;
177;SDS011;77;48.792;9.032;2024-03-08T11:52:32;25.90;;;18.33;;
177;SDS011;77;48.792;9.032;2024-03-08T11:54:57;28.03;;;17.90;;
177;SDS011;77;48.792;9.032;2024-03-08T11:57:22;29.30;;;18.10;;
177;SDS011;77;48.792;9.032;2024-03-08T11:59:50;28.33;;;18.33;;
177;SDS011;77;48.792;9.032;2024-03-08T12:02:16;29.33;;;18.60;;
177;SDS011;77;48.792;9.032;2024-03-08T12:04:41;25.90;;;17.50;;
177;SDS011;77;48.792;9.032;2024-03-08T12:07:06;27.47;;;17.20;;
177;SDS011;77;48.792;9.032;2024-03-08T12:09:34;30.40;;;17.87;;
177;SDS011;77;48.792;9.032;2024-03-08T12:12:00;26.40;;;16.17;;
177;SDS011;77;48.792;9.032;2024-03-08T12:14:25;27.23;;;16.77;;
177;SDS011;77;48.792;9.032;2024-03-08T12:16:51;24.50;;;16.07;;
177;SDS011;77;48.792;9.032;2024-03-08T12:19:16;27.13;;;16.87;;
177;SDS011;77;48.792;9.032;2024-03-08T12:21:42;27.97;;;17.20;;
177;SDS011;77;48.792;9.032;2024-03-08T12:24:07;27.60;;;16.47;;
177;SDS011;77;48.792;9.032;2024-03-08T12:26:33;28.47;;;18.33;;
177;SDS011;77;48.792;9.032;2024-03-08T12:31:38;27.13;;;16.83;;
177;SDS011;77;48.792;9.032;2024-03-08T12:34:05;28.87;;;18.40;;
177;SDS011;77;48.792;9.032;2024-03-08T12:36:30;28.17;;;17.70;;
177;SDS011;77;48.792;9.032;2024-03-08T12:38:55;29.17;;;17.90;;
177;SDS011;77;48.792;9.032;2024-03-08T12:41:20;29.90;;;18.00;;
177;SDS011;77;48.792;9.032;2024-03-08T12:43:46;30.80;;;17.27;;
177;SDS011;77;48.792;9.032;2024-03-08T12:46:11;28.80;;;16.60;;
177;SDS011;77;48.792;9.032;2024-03-08T12:48:37;31.20;;;18.00;;
177;SDS011;77;48.792;9.032;2024-03-08T12:51:03;26.80;;;16.47;;
177;SDS011;77;48.792;9.032;2024-03-08T12:53:29;30.60;;;18.03;;
177;SDS011;77;48.792;9.032;2024-03-08T12:55:54;26.13;;;16.83;;
177;SDS011;77;48.792;9.032;2024-03-08T12:58:19;28.27;;;17.90;;
177;SDS011;77;48.792;9.032;2024-03-08T13:00:44;30.10;;;18.17;;
177;SDS011;77;48.792;9.032;2024-03-08T13:03:09;29.00;;;17.27;;
177;SDS011;77;48.792;9.032;2024-03-08T13:05:35;25.20;;;15.90;;
177;SDS011;77;48.792;9.032;2024-03-08T13:08:01;29.10;;;17.10;;
177;SDS011;77;48.792;9.032;2024-03-08T13:10:26;28.57;;;17.83;;
177;SDS011;77;48.792;9.032;2024-03-08T13:12:51;29.00;;;17.37;;
177;SDS011;77;48.792;9.032;2024-03-08T13:15:17;28.70;;;17.00;;
177;SDS011;77;48.792;9.032;2024-03-08T13:17:42;26.93;;;16.90;;
177;SDS011;77;48.792;9.032;2024-03-08T13:20:07;27.90;;;16.90;;
177;SDS011;77;48.792;9.032;2024-03-08T13:22:33;27.67;;;16.40;;
177;SDS011;77;48.792;9.032;2024-03-08T13:24:59;28.97;;;17.00;;
177;SDS011;77;48.792;9.032;2024-03-08T13:27:24;28.40;;;17.03;;
177;SDS011;77;48.792;9.032;2024-03-08T13:29:49;33.33;;;18.30;;
177;SDS011;77;48.792;9.032;2024-03-08T13:32:15;28.75;;;16.35;;
177;SDS011;77;48.792;9.032;2024-03-08T13:34:40;31.27;;;17.20;;
177;SDS011;77;48.792;9.032;2024-03-08T13:37:06;28.07;;;16.30;;
177;SDS011;77;48.792;9.032;2024-03-08T13:39:33;27.67;;;17.97;;
177;SDS011;77;48.792;9.032;2024-03-08T13:42:00;27.00;;;16.83;;
177;SDS011;77;48.792;9.032;2024-03-08T13:44:25;29.60;;;16.70;;
177;SDS011;77;48.792;9.032;2024-03-08T13:46:50;30.08;;;16.83;;
177;SDS011;77;48.792;9.032;2024-03-08T13:49:15;28.97;;;17.30;;
177;SDS011;77;48.792;9.032;2024-03-08T13:51:40;28.47;;;16.83;;
177;SDS011;77;48.792;9.032;2024-03-08T13:54:05;28.03;;;16.80;;
177;SDS011;77;48.792;9.032;2024-03-08T13:56:31;27.37;;;16.00;;
177;SDS011;77;48.792;9.032;2024-03-08T13:58:57;28.10;;;16.77;;
177;SDS011;77;48.792;9.032;2024-03-08T14:01:22;26.07;;;16.13;;
177;SDS011;77;48.792;9.032;2024-03-08T14:03:47;31.03;;;16.77;;
177;SDS011;77;48.792;9.032;2024-03-08T14:06:13;29.27;;;17.10;;
177;SDS011;77;48.792;9.032;2024-03-08T14:08:38;27.93;;;17.20;;
177;SDS011;77;48.792;9.032;2024-03-08T14:11:03;29.00;;;17.10;;
177;SDS011;77;48.792;9.032;2024-03-08T14:13:28;31.93;;;18.10;;
177;SDS011;77;48.792;9.032;2024-03-08T14:15:55;28.20;;;17.30;;
177;SDS011;77;48.792;9.032;2024-03-08T14:18:20;26.87;;;16.53;;
177;SDS011;77;48.792;9.032;2024-03-08T14:20:45;30.30;;;17.40;;
177;SDS011;77;48.792;9.032;2024-03-08T14:23:10;28.37;;;17.10;;
177;SDS011;77;48.792;9.032;2024-03-08T14:25:36;28.10;;;16.83;;
177;SDS011;77;48.792;9.032;2024-03-08T14:28:01;26.05;;;16.13;;
177;SDS011;77;48.792;9.032;2024-03-08T14:30:26;26.27;;;15.63;;
177;SDS011;77;48.792;9.032;2024-03-08T14:32:52;27.40;;;17.20;;
177;SDS011;77;48.792;9.032;2024-03-08T14:35:18;26.90;;;16.07;;
177;SDS011;77;48.792;9.032;2024-03-08T14:37:43;24.10;;;15.23;;
177;SDS011;77;48.792;9.032;2024-03-08T14:40:08;25.37;;;15.90;;
177;SDS011;77;48.792;9.032;2024-03-08T14:42:33;26.60;;;16.07;;
177;SDS011;77;48.792;9.032;2024-03-08T14:44:58;27.00;;;16.35;;
177;SDS011;77;48.792;9.032;2024-03-08T14:47:24;26.83;;;16.40;;
177;SDS011;77;48.792;9.032;2024-03-08T14:49:50;25.43;;;15.60;;
177;SDS011;77;48.792;9.032;2024-03-08T14:52:15;23.30;;;14.97;;
177;SDS011;77;48.792;9.032;2024-03-08T14:54:40;25.70;;;15.30;;
177;SDS011;77;48.792;9.032;2024-03-08T14:57:05;30.83;;;15.87;;
177;SDS011;77;48.792;9.032;2024-03-08T14:59:31;26.00;;;15.70;;
177;SDS011;77;48.792;9.032;2024-03-08T15:01:56;26.57;;;15.77;;
177;SDS011;77;48.792;9.032;2024-03-08T15:04:21;27.10;;;16.37;;
177;SDS011;77;48.792;9.032;2024-03-08T15:06:47;25.23;;;15.70;;
177;SDS011;77;48.792;9.032;2024-03-08T15:09:13;27.47;;;15.87;;
177;SDS011;77;48.792;9.032;2024-03-08T15:11:38;31.63;;;16.57;;
177;SDS011;77;48.792;9.032;2024-03-08T15:14:03;27.30;;;16.20;;
177;SDS011;77;48.792;9.032;2024-03-08T15:16:28;29.00;;;17.90;;
177;SDS011;77;48.792;9.032;2024-03-08T15:18:53;34.93;;;17.73;;
177;SDS011;77;48.792;9.032;2024-03-08T15:21:18;29.10;;;17.87;;